sensor_id;sensor_type;location;lat;lon;timestamp;temperature;humidity
29803;DHT22;16702;50.898;4.662;2024-03-25T00:00:58;8.00;99.90
29803;DHT22;16702;50.898;4.662;2024-03-25T00:03:58;7.90;99.90
29803;DHT22;16702;50.898;4.662;2024-03-25T00:06:22;8.00;99.90
29803;DHT22;16702;50.898;4.662;2024-03-25T00:08:50;7.90;99.90
29803;DHT22;16702;50.898;4.662;2024-03-25T00:11:29;7.90;99.90
29803;DHT22;16702;50.898;4.662;2024-03-25T00:15:09;8.00;99.90
29803;DHT22;16702;50.898;4.662;2024-03-25T00:19:59;7.90;99.90
29803;DHT22;16702;50.898;4.662;2024-03-25T00:22:39;7.90;99.90
29803;DHT22;16702;50.898;4.662;2024-03-25T00:25:17;7.90;99.90
29803;DHT22;16702;50.898;4.662;2024-03-25T00:27:50;8.00;99.90
29803;DHT22;16702;50.898;4.662;2024-03-25T00:30:27;7.90;99.90
29803;DHT22;16702;50.898;4.662;2024-03-25T00:32:59;8.00;99.90
29803;DHT22;16702;50.898;4.662;2024-03-25T00:35:30;7.80;99.90
29803;DHT22;16702;50.898;4.662;2024-03-25T00:38:29;7.90;99.90
29803;DHT22;16702;50.898;4.662;2024-03-25T00:40:56;7.90;99.90
29803;DHT22;16702;50.898;4.662;2024-03-25T00:43:30;7.90;99.90
29803;DHT22;16702;50.898;4.662;2024-03-25T00:46:06;8.00;99.90
29803;DHT22;16702;50.898;4.662;2024-03-25T00:48:40;8.00;99.90
29803;DHT22;16702;50.898;4.662;2024-03-25T00:51:19;8.00;99.90
29803;DHT22;16702;50.898;4.662;2024-03-25T00:53:59;8.00;99.90
29803;DHT22;16702;50.898;4.662;2024-03-25T00:56:36;8.00;99.90
29803;DHT22;16702;50.898;4.662;2024-03-25T00:59:08;8.00;99.90
29803;DHT22;16702;50.898;4.662;2024-03-25T01:01:40;8.00;99.90
29803;DHT22;16702;50.898;4.662;2024-03-25T01:04:11;8.00;99.90
29803;DHT22;16702;50.898;4.662;2024-03-25T01:06:47;8.00;99.90
29803;DHT22;16702;50.898;4.662;2024-03-25T01:09:29;7.90;99.90
29803;DHT22;16702;50.898;4.662;2024-03-25T01:12:23;7.90;99.90
29803;DHT22;16702;50.898;4.662;2024-03-25T01:15:00;7.90;99.90
29803;DHT22;16702;50.898;4.662;2024-03-25T01:19:38;7.80;99.90
29803;DHT22;16702;50.898;4.662;2024-03-25T01:20:37;7.80;99.90
29803;DHT22;16702;50.898;4.662;2024-03-25T01:23:19;7.80;99.90
29803;DHT22;16702;50.898;4.662;2024-03-25T01:26:08;7.80;99.90
29803;DHT22;16702;50.898;4.662;2024-03-25T01:28:45;7.80;99.90
29803;DHT22;16702;50.898;4.662;2024-03-25T01:31:19;7.80;99.90
29803;DHT22;16702;50.898;4.662;2024-03-25T01:34:07;7.80;99.90
29803;DHT22;16702;50.898;4.662;2024-03-25T01:36:45;7.80;99.90
29803;DHT22;16702;50.898;4.662;2024-03-25T01:39:42;7.70;99.90
29803;DHT22;16702;50.898;4.662;2024-03-25T01:42:04;7.70;99.90
29803;DHT22;16702;50.898;4.662;2024-03-25T01:44:45;7.70;99.90
29803;DHT22;16702;50.898;4.662;2024-03-25T01:47:23;7.70;99.90
29803;DHT22;16702;50.898;4.662;2024-03-25T01:49:56;7.70;99.90
29803;DHT22;16702;50.898;4.662;2024-03-25T01:52:26;7.60;99.90
29803;DHT22;16702;50.898;4.662;2024-03-25T01:54:54;7.70;99.90
29803;DHT22;16702;50.898;4.662;2024-03-25T01:57:35;7.60;99.90
29803;DHT22;16702;50.898;4.662;2024-03-25T02:00:06;7.50;99.90
29803;DHT22;16702;50.898;4.662;2024-03-25T02:02:50;7.60;99.90
29803;DHT22;16702;50.898;4.662;2024-03-25T02:05:19;7.70;99.90
29803;DHT22;16702;50.898;4.662;2024-03-25T02:08:01;7.60;99.90
29803;DHT22;16702;50.898;4.662;2024-03-25T02:10:31;7.60;99.90
29803;DHT22;16702;50.898;4.662;2024-03-25T02:13:02;7.50;99.90
29803;DHT22;16702;50.898;4.662;2024-03-25T02:15:41;7.30;99.90
29803;DHT22;16702;50.898;4.662;2024-03-25T02:18:09;7.40;99.90
29803;DHT22;16702;50.898;4.662;2024-03-25T02:20:49;7.40;99.90
29803;DHT22;16702;50.898;4.662;2024-03-25T02:23:21;7.40;99.90
29803;DHT22;16702;50.898;4.662;2024-03-25T02:25:54;7.40;99.90
29803;DHT22;16702;50.898;4.662;2024-03-25T02:28:34;7.40;99.90
29803;DHT22;16702;50.898;4.662;2024-03-25T02:31:04;7.40;99.90
29803;DHT22;16702;50.898;4.662;2024-03-25T02:33:34;7.40;99.90
29803;DHT22;16702;50.898;4.662;2024-03-25T02:36:22;7.40;99.90
29803;DHT22;16702;50.898;4.662;2024-03-25T02:39:04;7.30;99.90
29803;DHT22;16702;50.898;4.662;2024-03-25T02:41:43;7.20;99.90
29803;DHT22;16702;50.898;4.662;2024-03-25T02:44:23;7.30;99.90
29803;DHT22;16702;50.898;4.662;2024-03-25T02:46:52;7.30;99.90
29803;DHT22;16702;50.898;4.662;2024-03-25T02:49:32;7.30;99.90
29803;DHT22;16702;50.898;4.662;2024-03-25T02:52:48;7.20;99.90
29803;DHT22;16702;50.898;4.662;2024-03-25T02:55:22;7.20;99.90
29803;DHT22;16702;50.898;4.662;2024-03-25T02:57:56;7.10;99.90
29803;DHT22;16702;50.898;4.662;2024-03-25T03:00:32;7.10;99.90
29803;DHT22;16702;50.898;4.662;2024-03-25T03:03:12;7.20;99.90
29803;DHT22;16702;50.898;4.662;2024-03-25T03:05:40;7.20;99.90
29803;DHT22;16702;50.898;4.662;2024-03-25T03:08:38;7.10;99.90
29803;DHT22;16702;50.898;4.662;2024-03-25T03:11:13;7.10;99.90
29803;DHT22;16702;50.898;4.662;2024-03-25T03:13:53;7.20;99.90
29803;DHT22;16702;50.898;4.662;2024-03-25T03:16:21;7.10;99.90
29803;DHT22;16702;50.898;4.662;2024-03-25T03:18:56;7.10;99.90
29803;DHT22;16702;50.898;4.662;2024-03-25T03:21:25;7.10;99.90
29803;DHT22;16702;50.898;4.662;2024-03-25T03:24:02;7.10;99.90
29803;DHT22;16702;50.898;4.662;2024-03-25T03:26:33;7.10;99.90
29803;DHT22;16702;50.898;4.662;2024-03-25T03:29:05;7.10;99.90
29803;DHT22;16702;50.898;4.662;2024-03-25T03:31:38;7.20;99.90
29803;DHT22;16702;50.898;4.662;2024-03-25T03:34:19;7.00;99.90
29803;DHT22;16702;50.898;4.662;2024-03-25T03:37:28;6.90;99.90
29803;DHT22;16702;50.898;4.662;2024-03-25T03:39:39;7.00;99.90
29803;DHT22;16702;50.898;4.662;2024-03-25T03:42:18;7.00;99.90
29803;DHT22;16702;50.898;4.662;2024-03-25T03:44:56;6.90;99.90
29803;DHT22;16702;50.898;4.662;2024-03-25T03:47:29;7.00;99.90
29803;DHT22;16702;50.898;4.662;2024-03-25T03:49:59;7.00;99.90
29803;DHT22;16702;50.898;4.662;2024-03-25T03:52:38;7.00;99.90
29803;DHT22;16702;50.898;4.662;2024-03-25T03:55:22;6.90;99.90
29803;DHT22;16702;50.898;4.662;2024-03-25T03:57:50;6.90;99.90
29803;DHT22;16702;50.898;4.662;2024-03-25T04:00:22;6.90;99.90
29803;DHT22;16702;50.898;4.662;2024-03-25T04:03:02;6.90;99.90
29803;DHT22;16702;50.898;4.662;2024-03-25T04:05:46;6.90;99.90
29803;DHT22;16702;50.898;4.662;2024-03-25T04:08:38;6.90;99.90
29803;DHT22;16702;50.898;4.662;2024-03-25T04:11:05;6.90;99.90
29803;DHT22;16702;50.898;4.662;2024-03-25T04:13:33;6.90;99.90
29803;DHT22;16702;50.898;4.662;2024-03-25T04:16:27;6.90;99.90
29803;DHT22;16702;50.898;4.662;2024-03-25T04:19:07;6.90;99.90
29803;DHT22;16702;50.898;4.662;2024-03-25T04:21:54;6.80;99.90
29803;DHT22;16702;50.898;4.662;2024-03-25T04:24:34;6.80;99.90
29803;DHT22;16702;50.898;4.662;2024-03-25T04:27:10;6.80;99.90
29803;DHT22;16702;50.898;4.662;2024-03-25T04:29:37;6.80;99.90
29803;DHT22;16702;50.898;4.662;2024-03-25T04:32:15;6.80;99.90
29803;DHT22;16702;50.898;4.662;2024-03-25T04:34:46;6.80;99.90
29803;DHT22;16702;50.898;4.662;2024-03-25T04:37:21;6.80;99.90
29803;DHT22;16702;50.898;4.662;2024-03-25T04:41:17;6.80;99.90
29803;DHT22;16702;50.898;4.662;2024-03-25T04:42:47;6.80;99.90
29803;DHT22;16702;50.898;4.662;2024-03-25T04:45:19;6.80;99.90
29803;DHT22;16702;50.898;4.662;2024-03-25T04:48:05;6.80;99.90
29803;DHT22;16702;50.898;4.662;2024-03-25T04:50:37;6.80;99.90
29803;DHT22;16702;50.898;4.662;2024-03-25T04:53:16;6.90;99.90
29803;DHT22;16702;50.898;4.662;2024-03-25T04:56:03;6.90;99.90
29803;DHT22;16702;50.898;4.662;2024-03-25T04:58:49;6.90;99.90
29803;DHT22;16702;50.898;4.662;2024-03-25T05:01:31;6.90;99.90
29803;DHT22;16702;50.898;4.662;2024-03-25T05:04:07;6.90;99.90
29803;DHT22;16702;50.898;4.662;2024-03-25T05:07:39;6.80;99.90
29803;DHT22;16702;50.898;4.662;2024-03-25T05:09:56;6.80;99.90
29803;DHT22;16702;50.898;4.662;2024-03-25T05:12:24;6.80;99.90
29803;DHT22;16702;50.898;4.662;2024-03-25T05:15:04;6.80;99.90
29803;DHT22;16702;50.898;4.662;2024-03-25T05:17:39;6.80;99.90
29803;DHT22;16702;50.898;4.662;2024-03-25T05:20:25;6.80;99.90
29803;DHT22;16702;50.898;4.662;2024-03-25T05:23:03;6.80;99.90
29803;DHT22;16702;50.898;4.662;2024-03-25T05:25:55;6.80;99.90
29803;DHT22;16702;50.898;4.662;2024-03-25T05:29:04;6.70;99.90
29803;DHT22;16702;50.898;4.662;2024-03-25T05:31:39;6.80;99.90
29803;DHT22;16702;50.898;4.662;2024-03-25T05:34:06;6.80;99.90
29803;DHT22;16702;50.898;4.662;2024-03-25T05:36:39;6.80;99.90
29803;DHT22;16702;50.898;4.662;2024-03-25T05:39:18;6.70;99.90
29803;DHT22;16702;50.898;4.662;2024-03-25T05:41:46;6.80;99.90
29803;DHT22;16702;50.898;4.662;2024-03-25T05:44:24;6.70;99.90
29803;DHT22;16702;50.898;4.662;2024-03-25T05:46:55;6.80;99.90
29803;DHT22;16702;50.898;4.662;2024-03-25T05:49:34;6.80;99.90
29803;DHT22;16702;50.898;4.662;2024-03-25T05:52:09;6.80;99.90
29803;DHT22;16702;50.898;4.662;2024-03-25T05:54:53;6.80;99.90
29803;DHT22;16702;50.898;4.662;2024-03-25T05:57:30;6.70;99.90
29803;DHT22;16702;50.898;4.662;2024-03-25T06:00:01;6.80;99.90
29803;DHT22;16702;50.898;4.662;2024-03-25T06:02:38;6.80;99.90
29803;DHT22;16702;50.898;4.662;2024-03-25T06:05:12;6.80;99.90
29803;DHT22;16702;50.898;4.662;2024-03-25T06:08:55;6.80;99.90
29803;DHT22;16702;50.898;4.662;2024-03-25T06:10:47;6.80;99.90
29803;DHT22;16702;50.898;4.662;2024-03-25T06:13:17;6.80;99.90
29803;DHT22;16702;50.898;4.662;2024-03-25T06:15:52;6.80;99.90
29803;DHT22;16702;50.898;4.662;2024-03-25T06:18:21;6.90;99.90
29803;DHT22;16702;50.898;4.662;2024-03-25T06:20:59;6.80;99.90
29803;DHT22;16702;50.898;4.662;2024-03-25T06:23:37;6.90;99.90
29803;DHT22;16702;50.898;4.662;2024-03-25T06:26:06;6.90;99.90
29803;DHT22;16702;50.898;4.662;2024-03-25T06:28:33;6.90;99.90
29803;DHT22;16702;50.898;4.662;2024-03-25T06:31:01;6.90;99.90
29803;DHT22;16702;50.898;4.662;2024-03-25T06:33:48;6.90;99.90
29803;DHT22;16702;50.898;4.662;2024-03-25T06:36:34;6.90;99.90
29803;DHT22;16702;50.898;4.662;2024-03-25T06:39:05;6.90;99.90
29803;DHT22;16702;50.898;4.662;2024-03-25T06:41:43;7.00;99.90
29803;DHT22;16702;50.898;4.662;2024-03-25T06:44:18;7.00;99.90
29803;DHT22;16702;50.898;4.662;2024-03-25T06:46:46;7.00;99.90
29803;DHT22;16702;50.898;4.662;2024-03-25T06:49:25;7.00;99.90
29803;DHT22;16702;50.898;4.662;2024-03-25T06:52:01;7.00;99.90
29803;DHT22;16702;50.898;4.662;2024-03-25T06:54:43;6.90;99.90
29803;DHT22;16702;50.898;4.662;2024-03-25T06:57:21;6.90;99.90
29803;DHT22;16702;50.898;4.662;2024-03-25T06:59:58;7.00;99.90
29803;DHT22;16702;50.898;4.662;2024-03-25T07:02:26;7.00;99.90
29803;DHT22;16702;50.898;4.662;2024-03-25T07:05:03;7.00;99.90
29803;DHT22;16702;50.898;4.662;2024-03-25T07:07:43;7.00;99.90
29803;DHT22;16702;50.898;4.662;2024-03-25T07:10:26;7.00;99.90
29803;DHT22;16702;50.898;4.662;2024-03-25T07:13:16;6.90;99.90
29803;DHT22;16702;50.898;4.662;2024-03-25T07:15:46;7.00;99.90
29803;DHT22;16702;50.898;4.662;2024-03-25T07:18:23;7.10;99.90
29803;DHT22;16702;50.898;4.662;2024-03-25T07:21:11;7.10;99.90
29803;DHT22;16702;50.898;4.662;2024-03-25T07:23:54;7.00;99.90
29803;DHT22;16702;50.898;4.662;2024-03-25T07:27:26;7.20;99.90
29803;DHT22;16702;50.898;4.662;2024-03-25T07:29:19;7.20;99.90
29803;DHT22;16702;50.898;4.662;2024-03-25T07:31:47;7.30;99.90
29803;DHT22;16702;50.898;4.662;2024-03-25T07:34:16;7.30;99.90
29803;DHT22;16702;50.898;4.662;2024-03-25T07:36:52;7.40;99.90
29803;DHT22;16702;50.898;4.662;2024-03-25T07:39:30;7.40;99.90
29803;DHT22;16702;50.898;4.662;2024-03-25T07:42:03;7.50;99.90
29803;DHT22;16702;50.898;4.662;2024-03-25T07:44:32;7.50;99.90
29803;DHT22;16702;50.898;4.662;2024-03-25T07:47:12;7.60;99.90
29803;DHT22;16702;50.898;4.662;2024-03-25T07:49:42;7.60;99.90
29803;DHT22;16702;50.898;4.662;2024-03-25T07:52:17;7.70;99.90
29803;DHT22;16702;50.898;4.662;2024-03-25T07:54:51;7.70;99.90
29803;DHT22;16702;50.898;4.662;2024-03-25T07:57:21;7.80;99.90
29803;DHT22;16702;50.898;4.662;2024-03-25T07:59:58;7.80;99.90
29803;DHT22;16702;50.898;4.662;2024-03-25T08:02:47;7.80;99.90
29803;DHT22;16702;50.898;4.662;2024-03-25T08:05:32;7.80;99.90
29803;DHT22;16702;50.898;4.662;2024-03-25T08:08:02;7.90;99.90
29803;DHT22;16702;50.898;4.662;2024-03-25T08:10:53;8.00;99.90
29803;DHT22;16702;50.898;4.662;2024-03-25T08:13:25;8.00;99.90
29803;DHT22;16702;50.898;4.662;2024-03-25T08:15:59;8.00;99.90
29803;DHT22;16702;50.898;4.662;2024-03-25T08:18:32;8.10;99.90
29803;DHT22;16702;50.898;4.662;2024-03-25T08:21:05;8.10;99.90
29803;DHT22;16702;50.898;4.662;2024-03-25T08:23:37;8.10;99.90
29803;DHT22;16702;50.898;4.662;2024-03-25T08:26:12;8.10;99.90
29803;DHT22;16702;50.898;4.662;2024-03-25T08:28:43;8.10;99.90
29803;DHT22;16702;50.898;4.662;2024-03-25T08:31:17;8.20;99.90
29803;DHT22;16702;50.898;4.662;2024-03-25T08:33:51;8.20;99.90
29803;DHT22;16702;50.898;4.662;2024-03-25T08:36:24;8.20;99.90
29803;DHT22;16702;50.898;4.662;2024-03-25T08:39:12;8.30;99.90
29803;DHT22;16702;50.898;4.662;2024-03-25T08:41:49;8.20;99.90
29803;DHT22;16702;50.898;4.662;2024-03-25T08:44:23;8.40;99.90
29803;DHT22;16702;50.898;4.662;2024-03-25T08:47:07;8.40;99.90
29803;DHT22;16702;50.898;4.662;2024-03-25T08:49:42;8.50;99.90
29803;DHT22;16702;50.898;4.662;2024-03-25T08:52:22;8.50;99.90
29803;DHT22;16702;50.898;4.662;2024-03-25T08:54:54;8.60;99.90
29803;DHT22;16702;50.898;4.662;2024-03-25T08:57:29;8.60;99.90
29803;DHT22;16702;50.898;4.662;2024-03-25T08:59:59;8.70;99.90
29803;DHT22;16702;50.898;4.662;2024-03-25T09:02:29;8.80;99.90
29803;DHT22;16702;50.898;4.662;2024-03-25T09:05:09;8.80;99.90
29803;DHT22;16702;50.898;4.662;2024-03-25T09:07:38;8.80;99.90
29803;DHT22;16702;50.898;4.662;2024-03-25T09:10:09;8.90;99.90
29803;DHT22;16702;50.898;4.662;2024-03-25T09:12:57;8.90;99.90
29803;DHT22;16702;50.898;4.662;2024-03-25T09:15:28;9.00;99.90
29803;DHT22;16702;50.898;4.662;2024-03-25T09:18:04;9.10;99.90
29803;DHT22;16702;50.898;4.662;2024-03-25T09:20:44;9.10;99.90
29803;DHT22;16702;50.898;4.662;2024-03-25T09:23:26;9.20;99.90
29803;DHT22;16702;50.898;4.662;2024-03-25T09:26:01;9.30;99.90
29803;DHT22;16702;50.898;4.662;2024-03-25T09:28:38;9.30;99.90
29803;DHT22;16702;50.898;4.662;2024-03-25T09:31:17;9.50;99.90
29803;DHT22;16702;50.898;4.662;2024-03-25T09:33:51;9.50;99.90
29803;DHT22;16702;50.898;4.662;2024-03-25T09:36:19;9.60;99.90
29803;DHT22;16702;50.898;4.662;2024-03-25T09:38:48;9.70;99.90
29803;DHT22;16702;50.898;4.662;2024-03-25T09:41:30;9.70;99.90
29803;DHT22;16702;50.898;4.662;2024-03-25T09:44:18;9.80;99.90
29803;DHT22;16702;50.898;4.662;2024-03-25T09:47:00;9.90;99.90
29803;DHT22;16702;50.898;4.662;2024-03-25T09:49:29;10.00;99.90
29803;DHT22;16702;50.898;4.662;2024-03-25T09:52:03;10.10;99.90
29803;DHT22;16702;50.898;4.662;2024-03-25T09:54:36;10.10;99.90
29803;DHT22;16702;50.898;4.662;2024-03-25T09:57:17;10.20;99.90
29803;DHT22;16702;50.898;4.662;2024-03-25T09:59:45;10.20;99.90
29803;DHT22;16702;50.898;4.662;2024-03-25T10:02:18;10.30;99.90
29803;DHT22;16702;50.898;4.662;2024-03-25T10:04:53;10.40;99.90
29803;DHT22;16702;50.898;4.662;2024-03-25T10:07:43;10.30;99.90
29803;DHT22;16702;50.898;4.662;2024-03-25T10:10:12;10.50;99.90
29803;DHT22;16702;50.898;4.662;2024-03-25T10:12:40;10.50;99.90
29803;DHT22;16702;50.898;4.662;2024-03-25T10:15:26;10.60;99.90
29803;DHT22;16702;50.898;4.662;2024-03-25T10:18:07;10.70;99.90
29803;DHT22;16702;50.898;4.662;2024-03-25T10:20:36;10.80;99.90
29803;DHT22;16702;50.898;4.662;2024-03-25T10:23:14;10.90;99.90
29803;DHT22;16702;50.898;4.662;2024-03-25T10:26:06;10.90;99.90
29803;DHT22;16702;50.898;4.662;2024-03-25T10:28:53;11.10;99.90
29803;DHT22;16702;50.898;4.662;2024-03-25T10:34:26;11.30;99.90
29803;DHT22;16702;50.898;4.662;2024-03-25T10:36:57;11.10;99.90
29803;DHT22;16702;50.898;4.662;2024-03-25T10:39:43;11.00;99.90
29803;DHT22;16702;50.898;4.662;2024-03-25T10:42:41;10.90;99.90
29803;DHT22;16702;50.898;4.662;2024-03-25T10:45:22;11.10;99.90
29803;DHT22;16702;50.898;4.662;2024-03-25T10:47:49;11.30;99.90
29803;DHT22;16702;50.898;4.662;2024-03-25T10:50:25;11.50;99.90
29803;DHT22;16702;50.898;4.662;2024-03-25T10:53:17;11.30;99.90
29803;DHT22;16702;50.898;4.662;2024-03-25T10:55:57;11.40;99.90
29803;DHT22;16702;50.898;4.662;2024-03-25T10:58:38;11.30;99.90
29803;DHT22;16702;50.898;4.662;2024-03-25T11:01:21;11.20;99.90
29803;DHT22;16702;50.898;4.662;2024-03-25T11:04:16;11.20;99.90
29803;DHT22;16702;50.898;4.662;2024-03-25T11:06:50;11.20;99.90
29803;DHT22;16702;50.898;4.662;2024-03-25T11:09:25;11.30;99.90
29803;DHT22;16702;50.898;4.662;2024-03-25T11:11:58;11.20;99.90
29803;DHT22;16702;50.898;4.662;2024-03-25T11:14:36;11.30;99.90
29803;DHT22;16702;50.898;4.662;2024-03-25T11:17:22;11.30;99.90
29803;DHT22;16702;50.898;4.662;2024-03-25T11:19:49;11.60;99.90
29803;DHT22;16702;50.898;4.662;2024-03-25T11:22:24;11.60;99.90
29803;DHT22;16702;50.898;4.662;2024-03-25T11:25:11;11.80;99.90
29803;DHT22;16702;50.898;4.662;2024-03-25T11:27:48;12.00;99.90
29803;DHT22;16702;50.898;4.662;2024-03-25T11:30:18;12.30;99.90
29803;DHT22;16702;50.898;4.662;2024-03-25T11:32:53;12.30;99.90
29803;DHT22;16702;50.898;4.662;2024-03-25T11:35:54;12.10;99.90
29803;DHT22;16702;50.898;4.662;2024-03-25T11:38:56;12.10;99.90
29803;DHT22;16702;50.898;4.662;2024-03-25T11:41:45;12.20;99.90
29803;DHT22;16702;50.898;4.662;2024-03-25T11:44:30;12.50;99.90
29803;DHT22;16702;50.898;4.662;2024-03-25T11:47:10;12.40;99.90
29803;DHT22;16702;50.898;4.662;2024-03-25T11:49:47;12.20;99.90
29803;DHT22;16702;50.898;4.662;2024-03-25T11:52:32;12.60;99.90
29803;DHT22;16702;50.898;4.662;2024-03-25T11:55:24;12.70;99.90
29803;DHT22;16702;50.898;4.662;2024-03-25T11:57:55;12.80;99.90
29803;DHT22;16702;50.898;4.662;2024-03-25T12:00:33;12.60;99.90
29803;DHT22;16702;50.898;4.662;2024-03-25T12:03:13;12.60;99.90
29803;DHT22;16702;50.898;4.662;2024-03-25T12:05:48;12.70;99.90
29803;DHT22;16702;50.898;4.662;2024-03-25T12:08:34;12.80;99.90
29803;DHT22;16702;50.898;4.662;2024-03-25T12:11:24;13.10;99.90
29803;DHT22;16702;50.898;4.662;2024-03-25T12:14:01;13.20;99.90
29803;DHT22;16702;50.898;4.662;2024-03-25T12:16:33;13.00;99.90
29803;DHT22;16702;50.898;4.662;2024-03-25T12:19:57;13.00;99.90
29803;DHT22;16702;50.898;4.662;2024-03-25T12:22:45;12.90;99.90
29803;DHT22;16702;50.898;4.662;2024-03-25T12:25:49;12.70;99.90
29803;DHT22;16702;50.898;4.662;2024-03-25T12:28:45;12.70;99.90
29803;DHT22;16702;50.898;4.662;2024-03-25T12:31:28;13.00;99.90
29803;DHT22;16702;50.898;4.662;2024-03-25T12:36:37;13.30;99.90
29803;DHT22;16702;50.898;4.662;2024-03-25T12:38:00;13.40;99.90
29803;DHT22;16702;50.898;4.662;2024-03-25T12:40:28;13.10;99.90
29803;DHT22;16702;50.898;4.662;2024-03-25T12:42:59;13.40;99.90
29803;DHT22;16702;50.898;4.662;2024-03-25T12:46:10;13.60;99.90
29803;DHT22;16702;50.898;4.662;2024-03-25T12:48:30;13.80;99.90
29803;DHT22;16702;50.898;4.662;2024-03-25T12:51:11;14.00;99.90
29803;DHT22;16702;50.898;4.662;2024-03-25T12:53:49;14.20;99.90
29803;DHT22;16702;50.898;4.662;2024-03-25T12:56:29;14.10;99.90
29803;DHT22;16702;50.898;4.662;2024-03-25T12:59:08;14.10;99.90
29803;DHT22;16702;50.898;4.662;2024-03-25T13:01:56;14.10;99.90
29803;DHT22;16702;50.898;4.662;2024-03-25T13:04:48;13.90;99.90
29803;DHT22;16702;50.898;4.662;2024-03-25T13:08:19;13.80;99.90
29803;DHT22;16702;50.898;4.662;2024-03-25T13:10:23;13.90;99.90
29803;DHT22;16702;50.898;4.662;2024-03-25T13:13:12;13.80;99.90
29803;DHT22;16702;50.898;4.662;2024-03-25T13:15:56;13.80;99.90
29803;DHT22;16702;50.898;4.662;2024-03-25T13:18:27;14.10;99.90
29803;DHT22;16702;50.898;4.662;2024-03-25T13:21:31;13.70;99.90
29803;DHT22;16702;50.898;4.662;2024-03-25T13:24:19;13.80;99.90
29803;DHT22;16702;50.898;4.662;2024-03-25T13:26:47;14.00;99.90
29803;DHT22;16702;50.898;4.662;2024-03-25T13:29:23;13.90;99.90
29803;DHT22;16702;50.898;4.662;2024-03-25T13:32:30;13.80;99.90
29803;DHT22;16702;50.898;4.662;2024-03-25T13:34:52;14.10;99.90
29803;DHT22;16702;50.898;4.662;2024-03-25T13:38:10;14.10;99.90
29803;DHT22;16702;50.898;4.662;2024-03-25T13:41:36;14.00;99.90
29803;DHT22;16702;50.898;4.662;2024-03-25T13:43:42;13.90;99.90
29803;DHT22;16702;50.898;4.662;2024-03-25T13:48:44;14.30;99.90
29803;DHT22;16702;50.898;4.662;2024-03-25T13:49:29;14.30;99.90
29803;DHT22;16702;50.898;4.662;2024-03-25T13:52:01;14.10;99.90
29803;DHT22;16702;50.898;4.662;2024-03-25T13:54:46;14.30;99.90
29803;DHT22;16702;50.898;4.662;2024-03-25T13:57:25;14.50;99.90
29803;DHT22;16702;50.898;4.662;2024-03-25T13:59:53;14.30;99.90
29803;DHT22;16702;50.898;4.662;2024-03-25T14:02:37;14.50;99.90
29803;DHT22;16702;50.898;4.662;2024-03-25T14:05:06;14.60;99.90
29803;DHT22;16702;50.898;4.662;2024-03-25T14:07:39;14.70;99.90
29803;DHT22;16702;50.898;4.662;2024-03-25T14:10:32;14.70;99.90
29803;DHT22;16702;50.898;4.662;2024-03-25T14:13:04;15.00;99.90
29803;DHT22;16702;50.898;4.662;2024-03-25T14:16:00;15.00;99.90
29803;DHT22;16702;50.898;4.662;2024-03-25T14:18:56;15.00;99.90
29803;DHT22;16702;50.898;4.662;2024-03-25T14:21:43;15.10;99.90
29803;DHT22;16702;50.898;4.662;2024-03-25T14:24:27;15.10;99.90
29803;DHT22;16702;50.898;4.662;2024-03-25T14:26:54;15.20;99.90
29803;DHT22;16702;50.898;4.662;2024-03-25T14:29:35;15.20;99.90
29803;DHT22;16702;50.898;4.662;2024-03-25T14:32:14;15.30;99.90
29803;DHT22;16702;50.898;4.662;2024-03-25T14:34:52;15.40;99.90
29803;DHT22;16702;50.898;4.662;2024-03-25T14:37:30;15.50;99.90
29803;DHT22;16702;50.898;4.662;2024-03-25T14:40:20;15.50;99.90
29803;DHT22;16702;50.898;4.662;2024-03-25T14:43:24;15.30;99.90
29803;DHT22;16702;50.898;4.662;2024-03-25T14:46:25;15.10;99.90
29803;DHT22;16702;50.898;4.662;2024-03-25T14:48:45;15.30;99.90
29803;DHT22;16702;50.898;4.662;2024-03-25T14:51:24;15.20;99.90
29803;DHT22;16702;50.898;4.662;2024-03-25T14:54:30;15.30;99.90
29803;DHT22;16702;50.898;4.662;2024-03-25T14:57:43;15.50;99.90
29803;DHT22;16702;50.898;4.662;2024-03-25T15:00:10;15.50;99.90
29803;DHT22;16702;50.898;4.662;2024-03-25T15:02:50;15.40;99.90
29803;DHT22;16702;50.898;4.662;2024-03-25T15:05:20;15.30;99.90
29803;DHT22;16702;50.898;4.662;2024-03-25T15:07:55;15.30;99.90
29803;DHT22;16702;50.898;4.662;2024-03-25T15:10:57;15.30;99.90
29803;DHT22;16702;50.898;4.662;2024-03-25T15:13:46;15.30;99.90
29803;DHT22;16702;50.898;4.662;2024-03-25T15:16:23;15.20;99.90
29803;DHT22;16702;50.898;4.662;2024-03-25T15:18:51;15.20;99.90
29803;DHT22;16702;50.898;4.662;2024-03-25T15:21:32;15.30;99.90
29803;DHT22;16702;50.898;4.662;2024-03-25T15:24:12;15.20;99.90
29803;DHT22;16702;50.898;4.662;2024-03-25T15:26:47;15.30;99.90
29803;DHT22;16702;50.898;4.662;2024-03-25T15:29:27;15.40;99.90
29803;DHT22;16702;50.898;4.662;2024-03-25T15:31:59;15.20;99.90
29803;DHT22;16702;50.898;4.662;2024-03-25T15:34:50;15.20;99.90
29803;DHT22;16702;50.898;4.662;2024-03-25T15:37:20;15.10;99.90
29803;DHT22;16702;50.898;4.662;2024-03-25T15:39:59;15.10;99.90
29803;DHT22;16702;50.898;4.662;2024-03-25T15:42:33;15.10;99.90
29803;DHT22;16702;50.898;4.662;2024-03-25T15:45:41;15.10;99.90
29803;DHT22;16702;50.898;4.662;2024-03-25T15:48:07;15.00;99.90
29803;DHT22;16702;50.898;4.662;2024-03-25T15:51:39;14.90;99.90
29803;DHT22;16702;50.898;4.662;2024-03-25T15:54:00;15.00;99.90
29803;DHT22;16702;50.898;4.662;2024-03-25T15:56:46;14.90;99.90
29803;DHT22;16702;50.898;4.662;2024-03-25T15:59:53;14.80;99.90
29803;DHT22;16702;50.898;4.662;2024-03-25T16:02:38;14.80;99.90
29803;DHT22;16702;50.898;4.662;2024-03-25T16:05:17;14.80;99.90
29803;DHT22;16702;50.898;4.662;2024-03-25T16:08:12;14.80;99.90
29803;DHT22;16702;50.898;4.662;2024-03-25T16:11:22;14.80;99.90
29803;DHT22;16702;50.898;4.662;2024-03-25T16:14:35;14.80;99.90
29803;DHT22;16702;50.898;4.662;2024-03-25T16:17:30;14.80;99.90
29803;DHT22;16702;50.898;4.662;2024-03-25T16:20:11;14.90;99.90
29803;DHT22;16702;50.898;4.662;2024-03-25T16:23:01;14.80;99.90
29803;DHT22;16702;50.898;4.662;2024-03-25T16:25:31;14.70;99.90
29803;DHT22;16702;50.898;4.662;2024-03-25T16:28:34;14.70;99.90
29803;DHT22;16702;50.898;4.662;2024-03-25T16:33:46;14.70;99.90
29803;DHT22;16702;50.898;4.662;2024-03-25T16:33:56;14.70;99.90
29803;DHT22;16702;50.898;4.662;2024-03-25T16:36:29;14.70;99.90
29803;DHT22;16702;50.898;4.662;2024-03-25T16:39:02;14.60;99.90
29803;DHT22;16702;50.898;4.662;2024-03-25T16:42:01;14.70;99.90
29803;DHT22;16702;50.898;4.662;2024-03-25T16:44:36;14.70;99.90
29803;DHT22;16702;50.898;4.662;2024-03-25T16:47:25;14.60;99.90
29803;DHT22;16702;50.898;4.662;2024-03-25T16:50:09;14.60;99.90
29803;DHT22;16702;50.898;4.662;2024-03-25T16:53:07;14.50;99.90
29803;DHT22;16702;50.898;4.662;2024-03-25T16:56:07;14.50;99.90
29803;DHT22;16702;50.898;4.662;2024-03-25T16:58:26;14.30;99.90
29803;DHT22;16702;50.898;4.662;2024-03-25T17:00:55;14.40;99.90
29803;DHT22;16702;50.898;4.662;2024-03-25T17:03:34;14.30;99.90
29803;DHT22;16702;50.898;4.662;2024-03-25T17:06:06;14.20;99.90